Data for 06/05/2010

Time Sea-Level Adjusted Pressure Absolute Pressure Temperature Relative Humidity Dew Point   
(mb) (inHg) (mb) (inHg) (C) (F) (%) (C) (F)
00:05 1016 30 845 24.95 9.3 48.7 80 6.1 42.9
00:10 1016 30 845 24.95 9.2 48.5 80 5.9 42.6
00:15 1016 30 845 24.95 9.2 48.5 80 6 42.7
00:20 1016 30 845 24.95 9.2 48.6 79 5.8 42.5
00:25 1016 30 845 24.95 9.2 48.5 80 5.9 42.5
00:30 1016 30 845 24.95 9.2 48.5 80 5.9 42.6
00:35 1016 30 845 24.95 9.2 48.6 77 5.5 41.9
00:40 1016 30 845 24.95 9.4 49 75 5.3 41.6
00:45 1016 30 845 24.95 9.6 49.4 74 5.3 41.5
00:50 1016 30 845 24.95 9.7 49.5 74 5.4 41.6
00:55 1016 30 845 24.95 9.7 49.5 73 5.1 41.2
01:00 1016 30 845 24.95 9.8 49.6 73 5.2 41.3
01:05 1016 30 845 24.95 9.8 49.7 71 4.9 40.8
01:10 1016 30 845 24.95 10 50 71 5 40.9
01:15 1016 30 845 24.95 10.1 50.2 71 5.1 41.2
01:20 1016 30 845 24.95 10 50.1 73 5.4 41.6
01:25 1016 30 845 24.95 10 50.1 71 5 41.1
01:30 1016 30 846 24.98 10.1 50.3 71 5.1 41.2
01:35 1016 30 846 24.98 10.3 50.5 70 5.2 41.3
01:40 1016 30 846 24.98 10.2 50.4 73 5.6 42
01:45 1016 30 846 24.98 10.1 50.1 72 5.4 41.6
01:50 1016 30 846 24.98 10 50 75 5.8 42.5
01:55 1016 30 846 24.98 9.9 49.8 77 6.1 43
02:00 1016 30 846 24.98 9.7 49.5 80 6.4 43.5
02:05 1016 30 846 24.98 9.3 48.7 81 6.1 43
02:10 1016 30 846 24.98 9.1 48.5 79 5.8 42.4
02:15 1017 30.03 846 24.98 9.2 48.5 81 6.1 43
02:20 1016 30 846 24.98 9 48.2 82 6.2 43.1
02:25 1017 30.03 846 24.98 8.9 48 81 5.9 42.6
02:30 1017 30.03 846 24.98 9 48.1 78 5.4 41.7
02:35 1017 30.03 846 24.98 9.2 48.6 77 5.4 41.8
02:40 1017 30.03 846 24.98 9.3 48.7 76 5.3 41.5
02:45 1017 30.03 846 24.98 9.3 48.8 76 5.2 41.4
02:50 1017 30.03 846 24.98 9.3 48.7 78 5.6 42.1
02:55 1017 30.03 846 24.98 9.2 48.5 77 5.3 41.6
03:00 1017 30.03 846 24.98 9.2 48.5 77 5.4 41.8
03:05 1017 30.03 846 24.98 9.1 48.3 78 5.4 41.7
03:10 1017 30.03 846 24.98 9 48.2 78 5.4 41.6
03:15 1017 30.03 846 24.98 9 48.2 78 5.4 41.7
03:20 1017 30.03 846 24.98 9 48.2 78 5.4 41.8
03:25 1017 30.03 846 24.98 8.9 48.1 79 5.4 41.7
03:30 1017 30.03 846 24.98 8.9 47.9 80 5.5 41.9
03:35 1017 30.03 846 24.98 8.8 47.9 81 5.7 42.2
03:40 1017 30.03 846 24.98 8.8 47.8 81 5.7 42.3
03:45 1017 30.03 846 24.98 8.7 47.6 83 5.9 42.6
03:50 1017 30.03 846 24.98 8.5 47.4 82 5.6 42.1
03:55 1017 30.03 846 24.98 8.6 47.4 82 5.6 42.1
04:00 1017 30.03 846 24.98 8.5 47.3 83 5.8 42.4
04:05 1017 30.03 846 24.98 8.5 47.4 82 5.6 42
04:10 1017 30.03 846 24.98 8.6 47.4 83 5.9 42.6
04:15 1017 30.03 846 24.98 8.5 47.4 85 6.1 43
04:20 1017 30.03 846 24.98 8.4 47.2 86 6.2 43.1
04:25 1017 30.03 846 24.98 8.4 47.1 86 6.1 43
04:30 1017 30.03 846 24.98 8.3 46.9 87 6.3 43.3
04:35 1017 30.03 846 24.98 8 46.3 88 6.1 43
04:40 1017 30.03 846 24.98 8 46.3 87 6 42.8
04:45 1017 30.03 846 24.98 8.1 46.5 86 5.9 42.6
04:50 1017 30.03 846 24.98 8.2 46.7 85 5.9 42.6
04:55 1017 30.03 847 25.01 8.4 47 84 5.8 42.4
05:00 1017 30.03 847 25.01 8.5 47.3 81 5.5 41.9
05:05 1017 30.03 847 25.01 8.5 47.2 86 6.3 43.4
05:10 1017 30.03 847 25.01 8.1 46.6 87 6.2 43.1
05:15 1018 30.06 847 25.01 8 46.4 88 6.2 43.1
05:20 1018 30.06 847 25.01 8.1 46.6 90 6.5 43.7
05:25 1018 30.06 847 25.01 7.9 46.3 91 6.6 43.9
05:30 1018 30.06 847 25.01 7.9 46.2 91 6.6 43.9
05:35 1018 30.06 847 25.01 7.9 46.2 91 6.6 43.9
05:40 1018 30.06 847 25.01 7.9 46.2 91 6.5 43.7
05:45 1018 30.06 847 25.01 8 46.3 88 6.2 43.1
05:50 1018 30.06 847 25.01 8 46.4 88 6.2 43.1
05:55 1018 30.06 847 25.01 7.9 46.3 90 6.4 43.6
06:00 1018 30.06 847 25.01 7.8 46.1 90 6.4 43.4
06:05 1018 30.06 847 25.01 7.9 46.1 89 6.2 43.1
06:10 1018 30.06 847 25.01 7.9 46.3 89 6.3 43.3
06:15 1018 30.06 847 25.01 8 46.4 89 6.2 43.2
06:20 1018 30.06 847 25.01 8 46.4 88 6.1 42.9
06:25 1018 30.06 848 25.04 8.2 46.7 89 6.4 43.5
06:30 1018 30.06 848 25.04 8.7 47.6 86 6.5 43.8
06:35 1018 30.06 848 25.04 8.7 47.7 86 6.5 43.8
06:40 1018 30.06 848 25.04 8.7 47.7 87 6.7 44
06:45 1018 30.06 848 25.04 8.9 48 85 6.5 43.6
06:50 1019 30.09 848 25.04 8.7 47.7 85 6.4 43.6
06:55 1019 30.09 848 25.04 8.8 47.8 85 6.4 43.6
07:00 1019 30.09 848 25.04 8.8 47.9 84 6.4 43.5
07:05 1019 30.09 848 25.04 8.9 48 83 6.2 43.2
07:10 1019 30.09 848 25.04 9.1 48.5 82 6.2 43.1
07:15 1019 30.09 848 25.04 9.2 48.6 82 6.3 43.3
07:20 1019 30.09 848 25.04 9.3 48.8 80 6.1 42.9
07:25 1019 30.09 848 25.04 9.4 49 80 6.2 43.1
07:30 1019 30.09 848 25.04 9.6 49.3 79 6.1 43
07:35 1019 30.09 848 25.04 9.6 49.3 81 6.5 43.6
07:40 1019 30.09 848 25.04 9.5 49.1 80 6.2 43.2
07:45 1019 30.09 848 25.04 9.6 49.2 80 6.3 43.3
07:50 1019 30.09 849 25.07 9.8 49.6 79 6.4 43.5
07:55 1019 30.09 849 25.07 10.1 50.2 79 6.6 43.8
08:00 1019 30.09 849 25.07 10.1 50.2 78 6.4 43.6
08:05 1020 30.12 849 25.07 10.4 50.8 77 6.6 43.8
08:10 1020 30.12 849 25.07 10.8 51.4 74 6.4 43.5
08:15 1020 30.12 849 25.07 11 51.9 74 6.5 43.8
08:20 1020 30.12 849 25.07 11.1 52 72 6.2 43.2
08:25 1020 30.12 849 25.07 11.1 51.9 70 5.9 42.6
08:30 1020 30.12 849 25.07 11 51.7 71 6 42.7
08:35 1020 30.12 849 25.07 10.9 51.6 73 6.2 43.2
08:40 1020 30.12 849 25.07 10.6 51 74 6.2 43.1
08:45 1020 30.12 849 25.07 10.5 50.9 74 6.2 43.1
08:50 1020 30.12 849 25.07 10.3 50.5 75 6 42.8
08:55 1020 30.12 849 25.07 10.5 50.9 77 6.6 43.8
09:00 1020 30.12 849 25.07 10.7 51.3 75 6.5 43.8
09:05 1020 30.12 849 25.07 10.9 51.7 75 6.7 44.1
09:10 1020 30.12 849 25.07 11 51.8 74 6.6 43.9
09:15 1020 30.12 849 25.07 11.1 52 68 5.5 41.9
09:20 1020 30.12 849 25.07 10.8 51.5 68 5.2 41.3
09:25 1020 30.12 850 25.1 10.8 51.4 69 5.3 41.5
09:30 1020 30.12 850 25.1 11.4 52.5 65 5 41.1
09:35 1020 30.12 849 25.07 12.1 53.7 62 5 41
09:40 1020 30.12 849 25.07 12.8 55 60 5.3 41.6
09:45 1020 30.12 850 25.1 13.3 55.9 57 5 41.1
09:50 1020 30.12 850 25.1 13 55.3 60 5.4 41.7
09:55 1020 30.12 850 25.1 13 55.4 58 4.9 40.8
10:00 1020 30.12 850 25.1 13.5 56.4 55 4.7 40.5
10:05 1020 30.12 850 25.1 13.1 55.6 55 4.4 39.8
10:10 1020 30.12 850 25.1 13.2 55.8 54 4.3 39.7
10:15 1020 30.12 850 25.1 13.7 56.7 51 3.8 38.8
10:20 1021 30.15 850 25.1 13.5 56.3 53 4.3 39.7
10:25 1021 30.15 850 25.1 13.4 56 54 4.4 40
10:30 1021 30.15 850 25.1 13.3 56 54 4.2 39.6
10:35 1020 30.12 850 25.1 13.3 56 53 4.1 39.4
10:40 1020 30.12 850 25.1 13.6 56.4 54 4.6 40.3
10:45 1020 30.12 850 25.1 13.6 56.4 55 4.8 40.6
10:50 1021 30.15 850 25.1 13.9 57 54 4.7 40.5
10:55 1021 30.15 850 25.1 14.5 58 52 4.9 40.8
11:00 1021 30.15 850 25.1 14.5 58.1 53 5.1 41.2
11:05 1021 30.15 850 25.1 13.8 56.8 53 4.6 40.2
11:10 1021 30.15 850 25.1 13.6 56.5 51 3.7 38.7
11:15 1021 30.15 850 25.1 14 57.2 52 4.3 39.7
11:20 1021 30.15 850 25.1 14.1 57.4 51 4.3 39.8
11:25 1021 30.15 850 25.1 14.5 58 48 3.7 38.7
11:30 1021 30.15 850 25.1 14.1 57.4 49 3.7 38.6
11:35 1021 30.15 850 25.1 13.7 56.6 53 4.3 39.7
11:40 1021 30.15 850 25.1 14.1 57.3 48 3.3 37.9
11:45 1021 30.15 850 25.1 15 59 46 3.5 38.3
11:50 1021 30.15 850 25.1 15.6 60.1 46 4.1 39.3
11:55 1021 30.15 850 25.1 15.8 60.4 45 4 39.2
12:00 1021 30.15 850 25.1 16.4 61.5 40 3 37.3
12:05 1021 30.15 850 25.1 16.4 61.5 43 4 39.3
12:10 1021 30.15 850 25.1 16.2 61.2 42 3.5 38.3
12:15 1021 30.15 850 25.1 15.9 60.6 43 3.5 38.2
12:20 1021 30.15 850 25.1 15.6 60 45 3.9 39
12:25 1021 30.15 850 25.1 15.4 59.7 43 2.9 37.2
12:30 1021 30.15 850 25.1 16 60.8 41 2.7 36.9
12:35 1021 30.15 850 25.1 16.3 61.3 43 3.9 39
12:40 1021 30.15 850 25.1 15.5 59.9 46 4 39.2
12:45 1021 30.15 850 25.1 15.3 59.5 44 3.2 37.7
12:50 1021 30.15 850 25.1 15.3 59.6 46 3.8 38.8
12:55 1021 30.15 850 25.1 15.2 59.4 46 3.7 38.7
13:00 1021 30.15 850 25.1 15.9 60.7 40 2.4 36.3
13:05 1020 30.12 850 25.1 16.2 61.1 40 2.8 37
13:10 1020 30.12 850 25.1 16.3 61.3 38 2.2 35.9
13:15 1020 30.12 850 25.1 16.9 62.5 39 3 37.5
13:20 1020 30.12 850 25.1 17.3 63.2 37 2.5 36.4
13:25 1020 30.12 850 25.1 17.4 63.4 36 2.2 36
13:30 1020 30.12 850 25.1 17.5 63.5 38 3.3 37.9
13:35 1020 30.12 850 25.1 17.6 63.8 35 2.1 35.8
13:40 1020 30.12 850 25.1 16.9 62.5 36 1.9 35.4
13:45 1020 30.12 850 25.1 17.6 63.7 34 1.6 34.9
13:50 1020 30.12 850 25.1 17.3 63.1 35 1.8 35.2
13:55 1020 30.12 850 25.1 16.8 62.3 35 1.3 34.4
14:00 1020 30.12 849 25.07 17.2 63 33 0.8 33.4
14:05 1020 30.12 849 25.07 17.1 62.8 33 1 33.8
14:10 1020 30.12 849 25.07 16.1 61 36 1.3 34.4
14:15 1020 30.12 849 25.07 16.6 62 33 0.4 32.6
14:20 1020 30.12 849 25.07 17.5 63.5 33 1 33.9
14:25 1020 30.12 849 25.07 17.8 64.1 31 0.7 33.2
14:30 1020 30.12 849 25.07 18 64.3 32 1.3 34.3
14:35 1020 30.12 849 25.07 18.7 65.7 30 0.9 33.6
14:40 1020 30.12 849 25.07 19 66.1 28 0.2 32.4
14:45 1020 30.12 849 25.07 18.4 65.2 30 0.7 33.2
14:50 1020 30.12 849 25.07 18.3 64.9 30 0.5 32.9
14:55 1020 30.12 849 25.07 18.9 66 28 0.2 32.4
15:00 1020 30.12 849 25.07 19.3 66.7 29 1.2 34.1
15:05 1020 30.12 849 25.07 18.7 65.6 29 0.7 33.2
15:10 1020 30.12 849 25.07 18.6 65.4 28 -0.4 31.3
15:15 1020 30.12 849 25.07 18.4 65.1 28 -0.5 31.2
15:20 1020 30.12 849 25.07 19 66.2 27 -0.2 31.6
15:25 1020 30.12 849 25.07 19.4 66.9 27 0.1 32.1
15:30 1020 30.12 849 25.07 19.3 66.8 26 -0.5 31
15:35 1020 30.12 849 25.07 19.1 66.3 25 -1 30.2
15:40 1020 30.12 849 25.07 18.9 66.1 25 -1.2 29.8
15:45 1020 30.12 849 25.07 19.8 67.6 26 -0.2 31.6
15:50 1020 30.12 849 25.07 19.5 67.1 26 -0.2 31.6
15:55 1020 30.12 849 25.07 19.6 67.3 25 -1 30.2
16:00 1020 30.12 849 25.07 19.3 66.7 26 -0.6 30.9
16:05 1020 30.12 849 25.07 18.5 65.2 26 -1.3 29.7
16:10 1020 30.12 849 25.07 18.4 65.1 26 -1.4 29.5
16:15 1020 30.12 849 25.07 18.7 65.7 25 -1.3 29.6
16:20 1020 30.12 849 25.07 18.8 65.8 25 -1.3 29.6
16:25 1020 30.12 849 25.07 19 66.2 24 -1.7 28.9
16:30 1020 30.12 849 25.07 19 66.1 24 -2.2 28.1
16:35 1020 30.12 849 25.07 19.5 67 24 -1.6 29.1
16:40 1020 30.12 849 25.07 19.3 66.7 23 -2 28.5
16:45 1020 30.12 849 25.07 19.4 66.9 24 -1.4 29.5
16:50 1020 30.12 849 25.07 18.8 65.9 25 -1.3 29.7
16:55 1020 30.12 849 25.07 18.4 65 26 -1.4 29.4
17:00 1020 30.12 849 25.07 18.5 65.3 25 -1.5 29.3
17:05 1020 30.12 849 25.07 18.8 65.9 25 -1.4 29.5
17:10 1020 30.12 849 25.07 19.5 67.1 25 -0.9 30.5
17:15 1020 30.12 849 25.07 19.1 66.3 24 -1.8 28.7
17:20 1020 30.12 849 25.07 18.9 66.1 24 -1.9 28.7
17:25 1020 30.12 849 25.07 19.6 67.3 24 -1.3 29.6
17:30 1020 30.12 849 25.07 19.5 67.1 24 -1.3 29.6
17:35 1020 30.12 849 25.07 19.8 67.6 23 -1.5 29.2
17:40 1020 30.12 849 25.07 19.7 67.5 24 -1.2 29.8
17:45 1020 30.12 849 25.07 19.6 67.3 24 -1.6 29.1
17:50 1020 30.12 849 25.07 19.6 67.4 24 -1.1 30
17:55 1020 30.12 849 25.07 19.5 67.1 25 -1.2 29.9
18:00 1020 30.12 849 25.07 19.6 67.3 24 -1.3 29.7
18:05 1020 30.12 849 25.07 19.9 67.8 24 -1.3 29.6
18:10 1020 30.12 849 25.07 20 68 23 -1.8 28.8
18:15 1020 30.12 849 25.07 19.5 67.1 24 -1.6 29
18:20 1020 30.12 849 25.07 19.5 67 24 -1.7 29
18:25 1020 30.12 849 25.07 19.5 67 26 -0.5 31.1
18:30 1020 30.12 849 25.07 19.4 66.9 24 -1.6 29.1
18:35 1020 30.12 849 25.07 19.4 67 23 -2 28.5
18:40 1020 30.12 849 25.07 19.5 67.2 24 -1.6 29.2
18:45 1020 30.12 849 25.07 19.2 66.5 24 -1.9 28.6
18:50 1020 30.12 849 25.07 19.2 66.6 25 -1.4 29.4
18:55 1020 30.12 849 25.07 19.1 66.4 24 -1.8 28.8
19:00 1020 30.12 849 25.07 19.1 66.4 25 -1.5 29.4
19:05 1020 30.12 849 25.07 18.9 65.9 26 -0.9 30.4
19:10 1020 30.12 849 25.07 18.9 66 25 -1.4 29.5
19:15 1020 30.12 849 25.07 19 66.1 24 -1.7 29
19:20 1020 30.12 849 25.07 18.8 65.8 25 -1.6 29.1
19:25 1020 30.12 849 25.07 18.5 65.3 25 -1.5 29.3
19:30 1020 30.12 849 25.07 18.2 64.8 26 -1.7 29
19:35 1020 30.12 849 25.07 18.1 64.5 27 -1.2 29.8
19:40 1020 30.12 849 25.07 18 64.3 27 -1.4 29.4
19:45 1020 30.12 849 25.07 17.7 63.9 26 -1.7 28.9
19:50 1020 30.12 849 25.07 17.7 63.9 27 -1.3 29.7
19:55 1020 30.12 849 25.07 17.6 63.8 27 -1.5 29.3
20:00 1020 30.12 849 25.07 17.4 63.4 27 -1.4 29.4
20:05 1020 30.12 849 25.07 17.3 63.2 27 -1.6 29.2
20:10 1020 30.12 850 25.1 17.3 63.1 29 -0.8 30.6
20:15 1020 30.12 850 25.1 17.3 63.2 27 -1.9 28.5
20:20 1020 30.12 850 25.1 17.3 63.1 27 -1.8 28.8
20:25 1020 30.12 850 25.1 17.2 63 28 -1.2 29.9
20:30 1020 30.12 850 25.1 17.2 62.9 28 -1.3 29.7
20:35 1020 30.12 850 25.1 17.1 62.8 29 -1.1 30
20:40 1020 30.12 850 25.1 17.1 62.7 28 -1.5 29.4
20:45 1021 30.15 850 25.1 17 62.5 29 -1.3 29.7
20:50 1021 30.15 850 25.1 16.9 62.3 30 -0.7 30.8
20:55 1021 30.15 850 25.1 16.8 62.2 30 -0.6 31
21:00 1021 30.15 850 25.1 16.6 61.8 30 -0.9 30.3
21:05 1021 30.15 850 25.1 16.4 61.4 31 -0.7 30.7
21:10 1021 30.15 850 25.1 15.9 60.5 42 3.2 37.8
21:15 1021 30.15 850 25.1 15 59 45 3.4 38.1
21:20 1021 30.15 850 25.1 14.5 58.1 48 3.6 38.4
21:25 1021 30.15 850 25.1 14 57.2 50 3.8 38.9
21:30 1021 30.15 850 25.1 13.5 56.3 51 3.7 38.6
21:35 1021 30.15 850 25.1 13 55.5 53 3.9 38.9
21:40 1021 30.15 850 25.1 12.7 54.8 54 3.6 38.5
21:45 1021 30.15 850 25.1 12.2 54 55 3.6 38.4
21:50 1021 30.15 850 25.1 12 53.6 55 3.4 38
21:55 1021 30.15 850 25.1 11.9 53.3 56 3.4 38
22:00 1021 30.15 850 25.1 11.5 52.7 55 2.9 37.3
22:05 1021 30.15 850 25.1 11.4 52.4 55 2.6 36.7
22:10 1021 30.15 850 25.1 11.4 52.5 53 2.3 36.2
22:15 1021 30.15 850 25.1 11.5 52.6 53 2.4 36.3
22:20 1021 30.15 850 25.1 11.3 52.4 53 2.1 35.8
22:25 1021 30.15 850 25.1 11.3 52.3 51 1.6 34.8
22:30 1021 30.15 851 25.13 11.4 52.5 49 1 33.8
22:35 1021 30.15 851 25.13 11.7 53 48 1.2 34.2
22:40 1021 30.15 851 25.13 11.9 53.4 50 1.8 35.2
22:45 1021 30.15 851 25.13 11.6 52.8 49 1.4 34.5
22:50 1021 30.15 851 25.13 11.6 52.9 50 1.5 34.8
22:55 1021 30.15 851 25.13 11.7 53 49 1.3 34.3
23:00 1021 30.15 851 25.13 11.7 53 47 0.9 33.7
23:05 1021 30.15 851 25.13 11.6 52.9 50 1.6 35
23:10 1021 30.15 851 25.13 11.4 52.4 51 1.7 35.1
23:15 1021 30.15 851 25.13 11.4 52.4 51 1.6 34.8
23:20 1022 30.18 851 25.13 11.3 52.3 51 1.5 34.8
23:25 1022 30.18 851 25.13 11.2 52.2 52 1.6 35
23:30 1022 30.18 851 25.13 11 51.8 52 1.5 34.7
23:35 1022 30.18 851 25.13 11 51.8 53 1.7 35.1
23:40 1022 30.18 851 25.13 10.9 51.6 52 1.4 34.5
23:45 1022 30.18 851 25.13 10.9 51.6 54 2 35.6
23:50 1022 30.18 851 25.13 10.9 51.5 54 2.1 35.8
23:55 1022 30.18 851 25.13 11 51.7 53 1.9 35.4
24:00 1022 30.18 851 25.13 11 51.7 54 2.1 35.8